Terminal Aerodrome Forecast
Issued by NWS

Home | Current Version | Previous Version | Text Only | Print | Product List | Glossary On
Versions: 1 2 3 4 5 6 7 8 9 10 11 12 13 14 15
046
FTUS44 KOHX 251401 AAA
TAFCKV
TAF AMD
KCKV 251401Z 2514/2612 22003KT 3SM -RA FEW040 BKN080 OVC110
     FM251500 20008KT P6SM SCT100 BKN250
     FM260000 19004KT P6SM BKN250=

USA.gov is the U.S. government's official web portal to all federal, state and local government web resources and services.